createdAt,value
2018-10-17T00:01:14.718Z,89.69
2018-10-17T00:03:43.710Z,89.51
2018-10-17T00:06:12.847Z,89.72
2018-10-17T00:08:42.010Z,89.08
2018-10-17T00:11:11.166Z,88.68
2018-10-17T00:13:40.211Z,88.86
2018-10-17T00:16:09.372Z,89.07
2018-10-17T00:18:38.458Z,89.46
2018-10-17T00:21:07.548Z,89.73
2018-10-17T00:23:36.634Z,89.84
2018-10-17T00:26:05.862Z,90.04
2018-10-17T00:28:35.540Z,89.59
2018-10-17T00:31:04.688Z,89.58
2018-10-17T00:33:33.759Z,89.68
2018-10-17T00:36:03.032Z,90.18
2018-10-17T00:38:32.127Z,90.32
2018-10-17T00:41:01.268Z,90.50
2018-10-17T00:43:30.336Z,90.45
2018-10-17T00:45:59.428Z,90.48
2018-10-17T00:48:28.536Z,90.60
2018-10-17T00:50:57.613Z,90.57
2018-10-17T00:53:26.723Z,90.76
2018-10-17T00:55:56.115Z,90.90
2018-10-17T00:58:25.200Z,90.74
2018-10-17T01:00:54.362Z,90.95
2018-10-17T01:03:23.398Z,91.45
2018-10-17T01:05:52.552Z,90.54
2018-10-17T01:08:22.101Z,91.00
2018-10-17T01:10:51.736Z,91.23
2018-10-17T01:49:55.903Z,91.04
2018-10-17T01:52:24.974Z,91.17
2018-10-17T01:54:54.159Z,91.08
2018-10-17T01:57:23.182Z,90.63
2018-10-17T01:59:52.275Z,90.88
2018-10-17T02:07:29.539Z,90.72
2018-10-17T02:09:58.663Z,90.90
2018-10-17T02:12:27.760Z,91.50
2018-10-17T02:14:56.816Z,91.50
2018-10-17T02:17:25.959Z,91.70
2018-10-17T02:19:55.067Z,90.97
2018-10-17T02:22:24.174Z,91.51
2018-10-17T02:24:53.324Z,91.67
2018-10-17T02:27:22.478Z,90.90
2018-10-17T02:29:52.414Z,90.95
2018-10-17T02:37:35.785Z,92.14
2018-10-17T02:40:04.950Z,91.27
2018-10-17T02:42:34.145Z,91.44
2018-10-17T02:45:03.262Z,91.78
2018-10-17T02:47:32.612Z,92.14
2018-10-17T02:50:05.567Z,91.46
2018-10-17T02:52:34.871Z,92.35
2018-10-17T02:55:04.033Z,91.94
2018-10-17T02:57:33.132Z,92.11
2018-10-17T03:00:02.753Z,91.66
2018-10-17T03:02:32.344Z,92.00
2018-10-17T03:05:01.531Z,91.49
2018-10-17T03:07:30.627Z,91.28
2018-10-17T03:09:59.779Z,91.75
2018-10-17T03:12:28.921Z,91.47
2018-10-17T03:14:57.991Z,91.09
2018-10-17T03:17:27.945Z,90.79
2018-10-17T03:19:57.041Z,90.85
2018-10-17T03:22:26.118Z,91.75
2018-10-17T03:24:55.234Z,91.73
2018-10-17T03:27:24.330Z,91.94
2018-10-17T03:29:53.419Z,91.68
2018-10-17T03:32:23.561Z,91.75
2018-10-17T03:34:53.152Z,91.64
2018-10-17T03:39:08.055Z,91.28
2018-10-17T03:41:37.165Z,91.08
2018-10-17T03:44:06.409Z,91.96
2018-10-17T03:46:35.486Z,91.72
2018-10-17T03:49:05.078Z,92.02
2018-10-17T03:51:34.119Z,91.21
2018-10-17T03:54:03.212Z,91.31
2018-10-17T03:56:32.365Z,91.38
2018-10-17T03:59:01.485Z,91.70
2018-10-17T04:01:30.452Z,91.87
2018-10-17T04:03:59.521Z,91.34
2018-10-17T04:06:28.594Z,91.55
2018-10-17T04:08:57.673Z,91.74
2018-10-17T04:11:27.083Z,91.40
2018-10-17T04:13:56.187Z,91.50
2018-10-17T04:16:25.517Z,91.59
2018-10-17T04:18:54.606Z,92.20
2018-10-17T04:21:23.679Z,92.77
2018-10-17T04:23:53.636Z,92.56
2018-10-17T04:26:23.574Z,91.99
2018-10-17T04:28:53.601Z,92.01
2018-10-17T05:49:50.223Z,92.48
2018-10-17T05:52:19.687Z,92.83
2018-10-17T05:54:50.711Z,92.87
2018-10-17T05:57:21.720Z,93.23
2018-10-17T05:59:50.827Z,92.96
2018-10-17T06:02:23.999Z,93.14
2018-10-17T06:04:53.472Z,93.21
2018-10-17T06:07:22.965Z,93.64
2018-10-17T06:09:52.940Z,94.42
2018-10-17T06:12:21.995Z,94.13
2018-10-17T06:14:51.093Z,94.76
2018-10-17T06:17:20.244Z,94.67
2018-10-17T06:19:49.322Z,94.93
2018-10-17T06:22:18.391Z,94.80
2018-10-17T06:24:47.510Z,94.28
2018-10-17T06:27:16.647Z,94.79
2018-10-17T06:29:45.730Z,94.88
2018-10-17T06:32:14.825Z,94.31
2018-10-17T06:34:43.990Z,94.73
2018-10-17T06:37:13.124Z,94.83
2018-10-17T06:39:42.072Z,95.04
2018-10-17T06:42:11.132Z,94.46
2018-10-17T06:44:40.225Z,95.41
2018-10-17T06:47:09.513Z,94.75
2018-10-17T06:49:38.597Z,94.92
2018-10-17T06:52:07.703Z,95.19
2018-10-17T06:54:36.778Z,95.39
2018-10-17T06:57:06.358Z,95.08
2018-10-17T06:59:35.449Z,95.33
2018-10-17T07:02:04.921Z,95.33
2018-10-17T07:04:33.948Z,94.77
2018-10-17T07:07:03.112Z,95.11
2018-10-17T07:09:32.120Z,95.10
2018-10-17T07:12:01.313Z,95.75
2018-10-17T07:14:31.313Z,95.02
2018-10-17T07:17:00.865Z,95.19
2018-10-17T07:19:29.975Z,94.87
2018-10-17T07:21:59.232Z,95.58
2018-10-17T07:24:28.293Z,95.47
2018-10-17T07:26:57.387Z,95.56
2018-10-17T07:29:26.892Z,95.24
2018-10-17T07:31:56.879Z,95.28
2018-10-17T07:34:26.723Z,95.54
2018-10-17T07:36:56.879Z,95.76
2018-10-17T07:39:26.810Z,95.43
2018-10-17T07:41:56.967Z,95.12
2018-10-17T07:44:26.838Z,95.55
2018-10-17T07:46:57.012Z,95.25
2018-10-17T07:49:26.889Z,95.34
2018-10-17T07:51:57.013Z,94.73
2018-10-17T07:54:27.022Z,95.28
2018-10-17T07:56:57.056Z,95.05
2018-10-17T07:59:26.926Z,95.31
2018-10-17T08:01:56.942Z,95.17
2018-10-17T08:04:26.965Z,95.43
2018-10-17T08:22:25.892Z,92.79
2018-10-17T08:24:54.977Z,92.43
2018-10-17T08:27:24.459Z,92.02
2018-10-17T08:29:53.525Z,91.88
2018-10-17T08:32:22.973Z,91.32
2018-10-17T08:34:52.040Z,91.02
2018-10-17T08:37:21.747Z,90.28
2018-10-17T08:39:50.634Z,89.91
2018-10-17T08:42:20.148Z,89.19
2018-10-17T08:44:49.279Z,89.17
2018-10-17T08:47:18.703Z,88.69
2018-10-17T08:49:47.793Z,88.49
2018-10-17T08:52:16.868Z,87.41
2018-10-17T08:54:46.171Z,86.80
2018-10-17T08:57:15.274Z,86.28
2018-10-17T08:59:44.346Z,85.40
2018-10-17T09:02:13.620Z,85.12
2018-10-17T09:04:42.529Z,84.49
2018-10-17T09:07:11.611Z,83.13
2018-10-17T09:09:40.687Z,82.63
2018-10-17T09:12:09.848Z,82.71
2018-10-17T09:14:38.881Z,82.32
2018-10-17T09:17:08.238Z,81.97
2018-10-17T09:19:38.107Z,80.94
2018-10-17T09:22:07.414Z,78.98
2018-10-17T09:24:36.268Z,79.18
2018-10-17T09:27:05.342Z,79.36
2018-10-17T09:29:34.477Z,78.82
2018-10-17T09:32:03.864Z,77.01
2018-10-17T09:34:32.956Z,77.02
2018-10-17T09:37:02.139Z,76.21
2018-10-17T09:39:31.219Z,76.32
2018-10-17T09:42:00.338Z,76.33
2018-10-17T09:44:29.445Z,75.85
2018-10-17T09:46:58.577Z,76.06
2018-10-17T09:49:28.493Z,76.42
2018-10-17T09:51:58.056Z,76.10
2018-10-17T10:10:07.145Z,74.33
2018-10-17T10:12:36.208Z,73.53
2018-10-17T10:15:07.581Z,73.54
2018-10-17T10:17:36.701Z,72.80
2018-10-17T10:20:07.364Z,72.49
2018-10-17T10:22:36.470Z,72.30
2018-10-17T10:25:05.768Z,71.14
2018-10-17T10:27:34.807Z,70.94
2018-10-17T10:30:04.028Z,71.15
2018-10-17T10:32:49.123Z,71.78
2018-10-17T10:35:18.551Z,70.71
2018-10-17T10:37:47.644Z,71.13
2018-10-17T10:40:16.836Z,69.86
2018-10-17T10:42:45.949Z,69.44
2018-10-17T10:45:15.121Z,68.77
2018-10-17T10:47:44.145Z,68.48
2018-10-17T10:50:13.306Z,68.30
2018-10-17T10:52:42.408Z,68.18
2018-10-17T10:55:11.463Z,67.09
2018-10-17T10:57:40.623Z,65.72
2018-10-17T11:00:09.730Z,66.04
2018-10-17T11:02:38.798Z,66.31
2018-10-17T11:05:08.038Z,65.79
2018-10-17T11:07:36.998Z,64.51
2018-10-17T11:10:06.275Z,65.06
2018-10-17T11:12:35.404Z,63.17
2018-10-17T11:15:04.690Z,64.12
2018-10-17T11:17:33.670Z,63.92
2018-10-17T11:20:02.805Z,63.95
2018-10-17T11:22:31.913Z,64.12
2018-10-17T11:25:01.063Z,63.67
2018-10-17T11:27:30.242Z,62.36
2018-10-17T11:29:59.315Z,62.48
2018-10-17T11:32:29.307Z,63.49
2018-10-17T11:34:59.567Z,63.79
2018-10-17T11:37:29.548Z,63.86
2018-10-17T11:39:59.088Z,62.66
2018-10-17T11:42:29.060Z,62.65
2018-10-17T11:44:59.125Z,62.74
2018-10-17T11:47:28.532Z,62.30
2018-10-17T11:49:57.622Z,62.15
2018-10-17T11:52:27.043Z,61.69
2018-10-17T11:54:56.159Z,61.65
2018-10-17T11:57:25.662Z,62.30
2018-10-17T11:59:54.740Z,61.36
2018-10-17T12:02:24.189Z,61.25
2018-10-17T12:04:53.498Z,58.46
2018-10-17T12:07:22.734Z,59.93
2018-10-17T12:09:51.853Z,60.33
2018-10-17T12:12:21.406Z,59.52
2018-10-17T12:14:50.437Z,59.13
2018-10-17T12:17:19.886Z,58.75
2018-10-17T12:19:49.044Z,60.11
2018-10-17T12:22:18.063Z,60.16
2018-10-17T12:24:47.333Z,59.95
2018-10-17T12:27:16.497Z,58.80
2018-10-17T12:29:45.506Z,57.53
2018-10-17T12:32:14.613Z,56.88
2018-10-17T12:34:43.708Z,57.62
2018-10-17T12:37:12.807Z,56.88
2018-10-17T12:39:41.988Z,56.87
2018-10-17T12:42:10.977Z,56.45
2018-10-17T12:44:40.162Z,55.32
2018-10-17T12:47:09.212Z,55.02
2018-10-17T12:49:38.313Z,55.72
2018-10-17T12:52:07.471Z,56.29
2018-10-17T12:54:36.598Z,55.44
2018-10-17T12:57:36.942Z,57.99
2018-10-17T13:00:07.834Z,57.20
2018-10-17T13:02:36.936Z,58.20
2018-10-17T13:05:07.329Z,58.16
2018-10-17T13:07:36.470Z,57.40
2018-10-17T13:10:06.384Z,56.11
2018-10-17T13:12:35.588Z,57.29
2018-10-17T13:15:05.510Z,57.94
2018-10-17T13:17:34.574Z,57.29
2018-10-17T13:20:03.793Z,56.85
2018-10-17T13:22:32.863Z,57.45
2018-10-17T13:25:02.092Z,57.05
2018-10-17T13:27:31.259Z,57.94
2018-10-17T13:30:00.347Z,57.35
2018-10-17T13:32:30.380Z,57.32
2018-10-17T13:35:00.186Z,57.36
2018-10-17T13:53:00.291Z,53.29
2018-10-17T14:00:31.343Z,55.47
2018-10-17T14:03:00.668Z,53.84
2018-10-17T14:05:30.518Z,54.52
2018-10-17T14:08:00.455Z,55.12
2018-10-17T14:15:32.056Z,55.30
2018-10-17T14:18:01.230Z,55.24
2018-10-17T14:20:31.011Z,54.21
2018-10-17T14:23:00.674Z,54.45
2018-10-17T14:30:29.024Z,54.21
2018-10-17T14:32:58.196Z,53.96
2018-10-17T14:35:27.601Z,53.18
2018-10-17T14:37:56.812Z,52.75
2018-10-17T14:40:26.171Z,51.81
2018-10-17T14:42:55.287Z,51.20
2018-10-17T14:45:24.781Z,51.27
2018-10-17T14:47:53.954Z,48.94
2018-10-17T14:50:23.379Z,49.21
2018-10-17T14:52:52.520Z,49.40
2018-10-17T14:55:22.042Z,49.88
2018-10-17T14:57:51.168Z,50.85
2018-10-17T15:00:20.538Z,51.28
2018-10-17T15:02:49.683Z,50.90
2018-10-17T15:05:18.813Z,51.15
2018-10-17T15:07:48.233Z,52.23
2018-10-17T15:10:17.730Z,52.15
2018-10-17T15:12:47.118Z,52.83
2018-10-17T15:15:16.508Z,53.82
2018-10-17T15:17:45.513Z,52.99
2018-10-17T15:20:14.615Z,53.54
2018-10-17T15:22:43.732Z,53.96
2018-10-17T15:25:12.839Z,54.15
2018-10-17T15:27:41.962Z,55.49
2018-10-17T15:30:11.157Z,55.43
2018-10-17T15:32:40.779Z,56.28
2018-10-17T15:35:10.056Z,56.55
2018-10-17T15:37:39.258Z,56.82
2018-10-17T15:40:08.737Z,57.49
2018-10-17T15:42:37.845Z,57.33
2018-10-17T15:45:07.017Z,58.30
2018-10-17T15:47:36.141Z,58.60
2018-10-17T15:50:05.368Z,58.77
2018-10-17T15:52:34.608Z,58.67
2018-10-17T15:55:03.807Z,59.52
2018-10-17T15:57:32.939Z,59.68
2018-10-17T16:00:02.263Z,59.82
2018-10-17T16:02:32.323Z,59.70
2018-10-17T16:05:02.124Z,60.12
2018-10-17T16:07:33.101Z,61.09
2018-10-17T16:10:02.212Z,60.59
2018-10-17T16:17:31.819Z,61.68
2018-10-17T16:20:00.976Z,61.54
2018-10-17T16:22:30.500Z,61.82
2018-10-17T16:24:59.630Z,62.73
2018-10-17T16:27:29.158Z,62.71
2018-10-17T16:29:58.350Z,63.55
2018-10-17T16:32:28.555Z,64.00
2018-10-17T16:34:57.730Z,63.58
2018-10-17T16:37:27.243Z,64.07
2018-10-17T16:39:56.375Z,64.79
2018-10-17T16:42:25.917Z,64.90
2018-10-17T16:44:55.069Z,64.89
2018-10-17T16:47:24.844Z,65.57
2018-10-17T16:49:54.077Z,66.30
2018-10-17T16:52:23.568Z,66.73
2018-10-17T16:54:52.703Z,66.96
2018-10-17T16:57:22.408Z,67.10
2018-10-17T16:59:51.568Z,67.60
2018-10-17T17:02:21.117Z,68.26
2018-10-17T17:04:50.273Z,68.29
2018-10-17T17:07:19.432Z,68.60
2018-10-17T17:09:48.905Z,69.52
2018-10-17T17:12:18.370Z,70.44
2018-10-17T17:14:47.912Z,70.75
2018-10-17T17:17:17.011Z,70.86
2018-10-17T17:19:46.149Z,71.08
2018-10-17T17:22:15.304Z,71.46
2018-10-17T17:24:44.485Z,71.58
2018-10-17T17:27:14.307Z,72.75
2018-10-17T17:29:43.728Z,73.01
2018-10-17T17:32:13.719Z,73.44
2018-10-17T17:34:43.135Z,73.91
2018-10-17T17:37:12.761Z,74.19
2018-10-17T17:39:42.052Z,74.58
2018-10-17T17:42:11.274Z,74.78
2018-10-17T17:44:40.605Z,74.79
2018-10-17T17:47:10.108Z,75.05
2018-10-17T17:49:39.460Z,75.66
2018-10-17T17:52:10.912Z,75.66
2018-10-17T17:54:40.224Z,76.26
2018-10-17T17:57:09.526Z,76.54
2018-10-17T17:59:38.741Z,76.75
2018-10-17T18:02:08.269Z,76.81
2018-10-17T18:04:37.621Z,77.46
2018-10-17T18:07:06.999Z,77.48
2018-10-17T18:09:36.736Z,77.90
2018-10-17T18:12:06.395Z,77.99
2018-10-17T18:14:36.229Z,78.54
2018-10-17T18:17:06.319Z,79.09
2018-10-17T18:19:36.294Z,79.00
2018-10-17T18:22:06.094Z,79.00
2018-10-17T18:24:36.051Z,79.60
2018-10-17T18:27:08.693Z,79.45
2018-10-17T18:29:39.740Z,80.02
2018-10-17T18:32:09.970Z,80.39
2018-10-17T18:34:40.410Z,80.60
2018-10-17T18:37:09.939Z,80.67
2018-10-17T18:39:39.629Z,80.89
2018-10-17T18:42:09.272Z,81.25
2018-10-17T18:44:39.675Z,81.89
2018-10-17T18:47:10.462Z,81.79
2018-10-17T18:49:40.211Z,82.08
2018-10-17T18:52:09.914Z,82.04
2018-10-17T18:54:39.646Z,82.39
2018-10-17T18:57:09.326Z,82.13
2018-10-17T18:59:38.831Z,82.77
2018-10-17T19:02:08.437Z,82.17
2018-10-17T19:04:37.991Z,82.37
2018-10-17T19:07:07.690Z,82.94
2018-10-17T19:09:37.782Z,83.52
2018-10-17T19:12:07.573Z,83.43
2018-10-17T19:14:37.872Z,83.38
2018-10-17T19:17:07.609Z,83.54
2018-10-17T19:19:37.795Z,83.38
2018-10-17T19:22:07.832Z,83.66
2018-10-17T19:24:38.007Z,83.41
2018-10-17T19:27:07.718Z,83.83
2018-10-17T19:29:38.100Z,84.02
2018-10-17T19:32:07.904Z,83.75
2018-10-17T19:34:38.279Z,84.15
2018-10-17T19:37:08.901Z,84.21
2018-10-17T19:39:38.468Z,83.71
2018-10-17T19:42:07.937Z,84.09
2018-10-17T19:44:38.579Z,84.06
2018-10-17T19:47:08.266Z,83.80
2018-10-17T19:49:38.760Z,84.10
2018-10-17T19:52:08.347Z,84.52
2018-10-17T19:54:38.661Z,84.73
2018-10-17T19:57:08.434Z,84.72
2018-10-17T19:59:38.404Z,84.66
2018-10-17T20:02:08.090Z,85.08
2018-10-17T20:04:38.335Z,84.71
2018-10-17T20:07:08.116Z,85.21
2018-10-17T20:09:38.705Z,85.13
2018-10-17T20:12:08.043Z,85.12
2018-10-17T20:14:37.846Z,84.62
2018-10-17T20:17:08.334Z,84.73
2018-10-17T20:19:38.314Z,84.70
2018-10-17T20:22:09.710Z,85.29
2018-10-17T20:24:38.929Z,85.15
2018-10-17T20:27:08.503Z,85.10
2018-10-17T20:29:38.549Z,85.70
2018-10-17T20:32:08.492Z,85.03
2018-10-17T20:34:38.398Z,85.43
2018-10-17T20:37:08.673Z,85.10
2018-10-17T20:39:38.312Z,85.76
2018-10-17T20:42:07.608Z,85.53
2018-10-17T20:44:37.032Z,85.47
2018-10-17T20:47:06.849Z,85.78
2018-10-17T20:49:36.799Z,85.76
2018-10-17T20:52:06.090Z,85.88
2018-10-17T20:54:35.662Z,85.64
2018-10-17T20:57:04.793Z,85.53
2018-10-17T20:59:34.601Z,85.78
2018-10-17T21:02:03.679Z,85.81
2018-10-17T21:04:33.258Z,85.53
2018-10-17T21:07:02.454Z,85.50
2018-10-17T21:09:32.019Z,85.99
2018-10-17T21:12:01.297Z,85.61
2018-10-17T21:14:30.864Z,85.82
2018-10-17T21:16:59.967Z,85.44
2018-10-17T21:19:29.551Z,85.65
2018-10-17T21:21:58.679Z,85.38
2018-10-17T21:24:28.057Z,85.94
2018-10-17T21:26:57.282Z,85.79
2018-10-17T21:29:26.675Z,86.32
2018-10-17T21:31:55.835Z,86.48
2018-10-17T21:34:25.193Z,86.94
2018-10-17T21:36:54.270Z,87.04
2018-10-17T21:39:23.797Z,87.07
2018-10-17T21:41:52.913Z,87.37
2018-10-17T21:44:22.390Z,87.47
2018-10-17T21:46:51.488Z,87.33
2018-10-17T21:49:20.591Z,87.44
2018-10-17T21:51:50.000Z,87.42
2018-10-17T21:54:19.116Z,87.88
2018-10-17T21:56:48.194Z,87.80
2018-10-17T21:59:17.605Z,87.45
2018-10-17T22:01:46.729Z,88.04
2018-10-17T22:04:15.837Z,88.13
2018-10-17T22:06:45.028Z,87.84
2018-10-17T22:09:14.485Z,88.32
2018-10-17T22:11:43.554Z,88.27
2018-10-17T22:14:12.758Z,87.77
2018-10-17T22:16:47.040Z,87.96
2018-10-17T22:19:16.494Z,87.88
2018-10-17T22:21:45.337Z,88.27
2018-10-17T22:24:14.468Z,87.81
2018-10-17T22:26:43.595Z,87.92
2018-10-17T22:29:12.718Z,87.84
2018-10-17T22:31:41.881Z,87.66
2018-10-17T22:34:11.092Z,87.18
2018-10-17T22:36:40.450Z,87.45
2018-10-17T22:39:12.771Z,87.46
2018-10-17T22:41:42.410Z,87.57
2018-10-17T22:44:11.861Z,88.26
2018-10-17T22:46:41.115Z,88.03
2018-10-17T22:49:11.121Z,88.60
2018-10-17T22:51:40.768Z,88.22
2018-10-17T22:54:10.561Z,88.57
2018-10-17T22:56:40.599Z,88.51
2018-10-17T22:59:10.569Z,88.57
2018-10-17T23:01:40.597Z,89.06
2018-10-17T23:04:10.607Z,88.79
2018-10-17T23:11:36.011Z,89.74
2018-10-17T23:14:05.471Z,89.83
2018-10-17T23:16:34.988Z,89.76
2018-10-17T23:19:04.260Z,89.65
2018-10-17T23:21:33.358Z,89.87
2018-10-17T23:24:02.454Z,89.44
2018-10-17T23:26:31.850Z,89.40
2018-10-17T23:29:00.964Z,89.05
2018-10-17T23:31:30.379Z,88.99
2018-10-17T23:33:59.459Z,88.87
2018-10-17T23:36:28.990Z,88.87
2018-10-17T23:38:58.103Z,89.12
2018-10-17T23:41:27.540Z,88.83
2018-10-17T23:43:56.641Z,88.73
2018-10-17T23:46:26.083Z,89.24
2018-10-17T23:48:55.166Z,88.78
2018-10-17T23:51:24.660Z,89.22
2018-10-17T23:53:53.791Z,89.39
2018-10-17T23:56:23.221Z,88.35
2018-10-17T23:58:52.298Z,88.57
